sensor_id;sensor_type;location;lat;lon;timestamp;pressure;altitude;pressure_sealevel;temperature;humidity
27429;BME280;14881;48.092;11.574;2023-05-10T00:01:44;94901.59;;;12.41;100.00
27429;BME280;14881;48.092;11.574;2023-05-10T00:04:10;94897.78;;;12.42;100.00
27429;BME280;14881;48.092;11.574;2023-05-10T00:06:37;94908.34;;;12.44;100.00
27429;BME280;14881;48.092;11.574;2023-05-10T00:09:04;94902.91;;;12.44;100.00
27429;BME280;14881;48.092;11.574;2023-05-10T00:11:30;94904.97;;;12.38;100.00
27429;BME280;14881;48.092;11.574;2023-05-10T00:13:56;94903.53;;;12.41;100.00
27429;BME280;14881;48.092;11.574;2023-05-10T00:16:23;94900.66;;;12.46;100.00
27429;BME280;14881;48.092;11.574;2023-05-10T00:18:49;94905.75;;;12.39;100.00
27429;BME280;14881;48.092;11.574;2023-05-10T00:21:15;94898.53;;;12.34;100.00
27429;BME280;14881;48.092;11.574;2023-05-10T00:23:42;94890.03;;;12.36;100.00
27429;BME280;14881;48.092;11.574;2023-05-10T00:26:09;94894.19;;;12.33;100.00
27429;BME280;14881;48.092;11.574;2023-05-10T00:28:35;94889.72;;;12.37;100.00
27429;BME280;14881;48.092;11.574;2023-05-10T00:31:01;94889.56;;;12.34;100.00
27429;BME280;14881;48.092;11.574;2023-05-10T00:33:28;94897.72;;;12.34;100.00
27429;BME280;14881;48.092;11.574;2023-05-10T00:35:54;94892.78;;;12.36;100.00
27429;BME280;14881;48.092;11.574;2023-05-10T00:38:20;94890.53;;;12.38;100.00
27429;BME280;14881;48.092;11.574;2023-05-10T00:40:47;94887.31;;;12.36;100.00
27429;BME280;14881;48.092;11.574;2023-05-10T00:43:16;94888.13;;;12.36;100.00
27429;BME280;14881;48.092;11.574;2023-05-10T00:45:42;94890.53;;;12.38;100.00
27429;BME280;14881;48.092;11.574;2023-05-10T00:48:09;94883.63;;;12.32;100.00
27429;BME280;14881;48.092;11.574;2023-05-10T00:50:35;94882.81;;;12.31;100.00
27429;BME280;14881;48.092;11.574;2023-05-10T00:53:02;94879.28;;;12.31;100.00
27429;BME280;14881;48.092;11.574;2023-05-10T00:55:29;94880.88;;;12.32;100.00
27429;BME280;14881;48.092;11.574;2023-05-10T00:57:57;94880.75;;;12.28;100.00
27429;BME280;14881;48.092;11.574;2023-05-10T01:00:23;94888.56;;;12.30;100.00
27429;BME280;14881;48.092;11.574;2023-05-10T01:02:50;94876.56;;;12.31;100.00
27429;BME280;14881;48.092;11.574;2023-05-10T01:05:16;94887.00;;;12.29;100.00
27429;BME280;14881;48.092;11.574;2023-05-10T01:07:43;94884.28;;;12.29;100.00
27429;BME280;14881;48.092;11.574;2023-05-10T01:10:11;94886.00;;;12.25;100.00
27429;BME280;14881;48.092;11.574;2023-05-10T01:12:39;94888.41;;;12.26;100.00
27429;BME280;14881;48.092;11.574;2023-05-10T01:15:08;94884.59;;;12.27;100.00
27429;BME280;14881;48.092;11.574;2023-05-10T01:17:38;94881.38;;;12.25;100.00
27429;BME280;14881;48.092;11.574;2023-05-10T01:20:06;94882.78;;;12.23;100.00
27429;BME280;14881;48.092;11.574;2023-05-10T01:22:54;94883.91;;;12.22;100.00
27429;BME280;14881;48.092;11.574;2023-05-10T01:25:44;94873.47;;;12.15;100.00
27429;BME280;14881;48.092;11.574;2023-05-10T01:28:44;94874.59;;;12.14;100.00
27429;BME280;14881;48.092;11.574;2023-05-10T01:31:33;94876.69;;;12.17;100.00
27429;BME280;14881;48.092;11.574;2023-05-10T01:34:09;94880.03;;;12.14;100.00
27429;BME280;14881;48.092;11.574;2023-05-10T01:36:42;94878.78;;;12.20;100.00
27429;BME280;14881;48.092;11.574;2023-05-10T01:39:14;94873.94;;;12.08;100.00
27429;BME280;14881;48.092;11.574;2023-05-10T01:41:47;94877.63;;;12.12;100.00
27429;BME280;14881;48.092;11.574;2023-05-10T01:44:22;94880.34;;;12.12;100.00
27429;BME280;14881;48.092;11.574;2023-05-10T01:46:54;94880.19;;;12.09;100.00
27429;BME280;14881;48.092;11.574;2023-05-10T01:49:26;94876.78;;;12.03;100.00
27429;BME280;14881;48.092;11.574;2023-05-10T01:51:59;94883.03;;;12.04;100.00
27429;BME280;14881;48.092;11.574;2023-05-10T01:54:27;94883.84;;;12.04;100.00
27429;BME280;14881;48.092;11.574;2023-05-10T01:56:57;94877.09;;;12.02;100.00
27429;BME280;14881;48.092;11.574;2023-05-10T01:59:30;94878.03;;;11.97;100.00
27429;BME280;14881;48.092;11.574;2023-05-10T02:02:02;94876.00;;;12.03;100.00
27429;BME280;14881;48.092;11.574;2023-05-10T02:04:31;94877.09;;;11.93;100.00
27429;BME280;14881;48.092;11.574;2023-05-10T02:06:59;94869.88;;;11.97;100.00
27429;BME280;14881;48.092;11.574;2023-05-10T02:09:27;94874.06;;;11.95;100.00
27429;BME280;14881;48.092;11.574;2023-05-10T02:11:55;94872.28;;;11.99;100.00
27429;BME280;14881;48.092;11.574;2023-05-10T02:14:23;94875.31;;;11.97;100.00
27429;BME280;14881;48.092;11.574;2023-05-10T02:16:53;94875.31;;;11.97;100.00
27429;BME280;14881;48.092;11.574;2023-05-10T02:19:22;94869.06;;;11.97;100.00
27429;BME280;14881;48.092;11.574;2023-05-10T02:21:51;94873.88;;;12.00;100.00
27429;BME280;14881;48.092;11.574;2023-05-10T02:24:19;94880.44;;;11.99;100.00
27429;BME280;14881;48.092;11.574;2023-05-10T02:26:48;94877.41;;;12.00;100.00
27429;BME280;14881;48.092;11.574;2023-05-10T02:29:16;94873.41;;;11.98;100.00
27429;BME280;14881;48.092;11.574;2023-05-10T02:31:44;94875.63;;;11.96;100.00
27429;BME280;14881;48.092;11.574;2023-05-10T02:34:11;94880.44;;;11.99;100.00
27429;BME280;14881;48.092;11.574;2023-05-10T02:36:39;94879.66;;;11.98;100.00
27429;BME280;14881;48.092;11.574;2023-05-10T02:39:08;94876.78;;;11.95;100.00
27429;BME280;14881;48.092;11.574;2023-05-10T02:41:39;94874.50;;;11.97;100.00
27429;BME280;14881;48.092;11.574;2023-05-10T02:44:07;94878.34;;;11.96;100.00
27429;BME280;14881;48.092;11.574;2023-05-10T02:46:35;94880.44;;;11.99;100.00
27429;BME280;14881;48.092;11.574;2023-05-10T02:49:02;94876.91;;;11.98;100.00
27429;BME280;14881;48.092;11.574;2023-05-10T02:51:31;94881.06;;;11.96;100.00
27429;BME280;14881;48.092;11.574;2023-05-10T02:54:03;94882.22;;;11.95;100.00
27429;BME280;14881;48.092;11.574;2023-05-10T02:56:36;94879.16;;;11.96;100.00
27429;BME280;14881;48.092;11.574;2023-05-10T02:59:06;94878.19;;;11.92;100.00
27429;BME280;14881;48.092;11.574;2023-05-10T03:01:34;94878.19;;;11.92;100.00
27429;BME280;14881;48.092;11.574;2023-05-10T03:04:00;94881.88;;;11.96;100.00
27429;BME280;14881;48.092;11.574;2023-05-10T03:06:27;94882.34;;;11.90;100.00
27429;BME280;14881;48.092;11.574;2023-05-10T03:08:54;94883.34;;;11.94;100.00
27429;BME280;14881;48.092;11.574;2023-05-10T03:11:30;94888.13;;;11.97;100.00
27429;BME280;14881;48.092;11.574;2023-05-10T03:14:08;94887.31;;;11.96;100.00
27429;BME280;14881;48.092;11.574;2023-05-10T03:16:46;94889.41;;;11.99;100.00
27429;BME280;14881;48.092;11.574;2023-05-10T03:19:17;94892.44;;;11.98;100.00
27429;BME280;14881;48.092;11.574;2023-05-10T03:21:50;94895.19;;;11.98;100.00
27429;BME280;14881;48.092;11.574;2023-05-10T03:24:20;94899.00;;;11.97;100.00
27429;BME280;14881;48.092;11.574;2023-05-10T03:26:48;94899.19;;;12.00;100.00
27429;BME280;14881;48.092;11.574;2023-05-10T03:29:20;94897.91;;;11.98;100.00
27429;BME280;14881;48.092;11.574;2023-05-10T03:31:47;94908.97;;;12.01;100.00
27429;BME280;14881;48.092;11.574;2023-05-10T03:34:14;94907.97;;;11.97;100.00
27429;BME280;14881;48.092;11.574;2023-05-10T03:36:40;94896.28;;;11.97;100.00
27429;BME280;14881;48.092;11.574;2023-05-10T03:39:07;94895.34;;;12.01;100.00
27429;BME280;14881;48.092;11.574;2023-05-10T03:41:33;94910.09;;;12.00;100.00
27429;BME280;14881;48.092;11.574;2023-05-10T03:43:59;94906.88;;;11.98;100.00
27429;BME280;14881;48.092;11.574;2023-05-10T03:46:26;94896.13;;;11.93;100.00
27429;BME280;14881;48.092;11.574;2023-05-10T03:48:53;94910.72;;;11.97;100.00
27429;BME280;14881;48.092;11.574;2023-05-10T03:51:19;94906.72;;;11.95;100.00
27429;BME280;14881;48.092;11.574;2023-05-10T03:53:46;94913.13;;;11.99;100.00
27429;BME280;14881;48.092;11.574;2023-05-10T03:56:12;94913.75;;;11.96;100.00
27429;BME280;14881;48.092;11.574;2023-05-10T03:58:38;94921.59;;;11.97;100.00
27429;BME280;14881;48.092;11.574;2023-05-10T04:01:04;94913.63;;;12.01;100.00
27429;BME280;14881;48.092;11.574;2023-05-10T04:03:31;94917.94;;;12.02;100.00
27429;BME280;14881;48.092;11.574;2023-05-10T04:05:59;94918.56;;;11.99;100.00
27429;BME280;14881;48.092;11.574;2023-05-10T04:08:26;94919.25;;;12.04;100.00
27429;BME280;14881;48.092;11.574;2023-05-10T04:10:52;94922.28;;;12.03;100.00
27429;BME280;14881;48.092;11.574;2023-05-10T04:13:19;94920.53;;;12.07;100.00
27429;BME280;14881;48.092;11.574;2023-05-10T04:15:45;94927.09;;;12.06;100.00
27429;BME280;14881;48.092;11.574;2023-05-10T04:18:11;94926.28;;;12.05;100.00
27429;BME280;14881;48.092;11.574;2023-05-10T04:20:38;94921.66;;;12.06;100.00
27429;BME280;14881;48.092;11.574;2023-05-10T04:23:04;94920.84;;;12.05;100.00
27429;BME280;14881;48.092;11.574;2023-05-10T04:25:33;94926.91;;;12.02;100.00
27429;BME280;14881;48.092;11.574;2023-05-10T04:28:00;94924.38;;;12.06;100.00
27429;BME280;14881;48.092;11.574;2023-05-10T04:30:28;94924.38;;;12.06;100.00
27429;BME280;14881;48.092;11.574;2023-05-10T04:32:55;94931.44;;;12.07;100.00
27429;BME280;14881;48.092;11.574;2023-05-10T04:35:21;94927.41;;;12.04;100.00
27429;BME280;14881;48.092;11.574;2023-05-10T04:37:48;94927.72;;;12.03;100.00
27429;BME280;14881;48.092;11.574;2023-05-10T04:40:14;94924.38;;;12.06;100.00
27429;BME280;14881;48.092;11.574;2023-05-10T04:42:41;94927.59;;;12.08;100.00
27429;BME280;14881;48.092;11.574;2023-05-10T04:45:08;94930.63;;;12.06;100.00
27429;BME280;14881;48.092;11.574;2023-05-10T04:47:35;94938.13;;;12.01;100.00
27429;BME280;14881;48.092;11.574;2023-05-10T04:50:03;94944.66;;;12.00;100.00
27429;BME280;14881;48.092;11.574;2023-05-10T04:52:29;94941.16;;;11.99;100.00
27429;BME280;14881;48.092;11.574;2023-05-10T04:54:56;94935.50;;;11.96;100.00
27429;BME280;14881;48.092;11.574;2023-05-10T04:57:22;94935.84;;;11.94;100.00
27429;BME280;14881;48.092;11.574;2023-05-10T04:59:49;94943.34;;;11.89;100.00
27429;BME280;14881;48.092;11.574;2023-05-10T05:02:16;94948.41;;;11.81;100.00
27429;BME280;14881;48.092;11.574;2023-05-10T05:04:42;94946.19;;;11.83;100.00
27429;BME280;14881;48.092;11.574;2023-05-10T05:07:08;94954.34;;;11.83;100.00
27429;BME280;14881;48.092;11.574;2023-05-10T05:09:36;94953.84;;;11.81;100.00
27429;BME280;14881;48.092;11.574;2023-05-10T05:12:04;94958.63;;;11.76;100.00
27429;BME280;14881;48.092;11.574;2023-05-10T05:14:30;94969.22;;;11.77;100.00
27429;BME280;14881;48.092;11.574;2023-05-10T05:16:56;94965.97;;;11.75;100.00
27429;BME280;14881;48.092;11.574;2023-05-10T05:19:23;94971.34;;;11.67;100.00
27429;BME280;14881;48.092;11.574;2023-05-10T05:21:49;94975.94;;;11.58;100.00
27429;BME280;14881;48.092;11.574;2023-05-10T05:24:16;94965.91;;;11.67;100.00
27429;BME280;14881;48.092;11.574;2023-05-10T05:26:42;94966.69;;;11.67;100.00
27429;BME280;14881;48.092;11.574;2023-05-10T05:29:09;94982.63;;;11.60;100.00
27429;BME280;14881;48.092;11.574;2023-05-10T05:31:35;94980.25;;;11.59;100.00
27429;BME280;14881;48.092;11.574;2023-05-10T05:34:02;94983.94;;;11.63;100.00
27429;BME280;14881;48.092;11.574;2023-05-10T05:36:28;94982.97;;;11.59;100.00
27429;BME280;14881;48.092;11.574;2023-05-10T05:38:54;94990.56;;;11.48;100.00
27429;BME280;14881;48.092;11.574;2023-05-10T05:41:21;94990.84;;;11.46;100.00
27429;BME280;14881;48.092;11.574;2023-05-10T05:43:47;94993.81;;;11.36;100.00
27429;BME280;14881;48.092;11.574;2023-05-10T05:46:14;95001.78;;;11.33;100.00
27429;BME280;14881;48.092;11.574;2023-05-10T05:48:40;94997.81;;;11.16;100.00
27429;BME280;14881;48.092;11.574;2023-05-10T05:51:10;95004.97;;;10.99;100.00
27429;BME280;14881;48.092;11.574;2023-05-10T05:53:37;95012.06;;;10.86;100.00
27429;BME280;14881;48.092;11.574;2023-05-10T05:56:04;95015.56;;;10.87;100.00
27429;BME280;14881;48.092;11.574;2023-05-10T05:58:30;95011.22;;;10.99;100.00
27429;BME280;14881;48.092;11.574;2023-05-10T06:00:56;95011.44;;;11.03;100.00
27429;BME280;14881;48.092;11.574;2023-05-10T06:03:24;95008.19;;;11.14;100.00
27429;BME280;14881;48.092;11.574;2023-05-10T06:05:50;95013.50;;;11.20;100.00
27429;BME280;14881;48.092;11.574;2023-05-10T06:08:16;95015.72;;;11.18;100.00
27429;BME280;14881;48.092;11.574;2023-05-10T06:10:43;95012.91;;;11.23;100.00
27429;BME280;14881;48.092;11.574;2023-05-10T06:13:10;95025.47;;;11.32;100.00
27429;BME280;14881;48.092;11.574;2023-05-10T06:15:36;95028.38;;;11.36;100.00
27429;BME280;14881;48.092;11.574;2023-05-10T06:18:03;95029.69;;;11.38;100.00
27429;BME280;14881;48.092;11.574;2023-05-10T06:20:30;95043.66;;;11.45;100.00
27429;BME280;14881;48.092;11.574;2023-05-10T06:22:57;95047.56;;;11.53;100.00
27429;BME280;14881;48.092;11.574;2023-05-10T06:25:23;95041.53;;;11.56;100.00
27429;BME280;14881;48.092;11.574;2023-05-10T06:27:50;95053.56;;;11.64;100.00
27429;BME280;14881;48.092;11.574;2023-05-10T06:30:21;95050.53;;;11.79;100.00
27429;BME280;14881;48.092;11.574;2023-05-10T06:32:53;95048.81;;;11.83;100.00
27429;BME280;14881;48.092;11.574;2023-05-10T06:35:19;95046.78;;;11.89;100.00
27429;BME280;14881;48.092;11.574;2023-05-10T06:37:46;95043.88;;;12.07;100.00
27429;BME280;14881;48.092;11.574;2023-05-10T06:40:13;95050.16;;;12.16;100.00
27429;BME280;14881;48.092;11.574;2023-05-10T06:42:40;95055.06;;;12.28;100.00
27429;BME280;14881;48.092;11.574;2023-05-10T06:45:07;95047.53;;;12.34;100.00
27429;BME280;14881;48.092;11.574;2023-05-10T06:47:34;95048.50;;;12.60;100.00
27429;BME280;14881;48.092;11.574;2023-05-10T06:50:05;95048.84;;;12.67;100.00
27429;BME280;14881;48.092;11.574;2023-05-10T06:52:31;95048.56;;;12.77;100.00
27429;BME280;14881;48.092;11.574;2023-05-10T06:54:58;95052.44;;;12.85;100.00
27429;BME280;14881;48.092;11.574;2023-05-10T06:57:24;95049.63;;;13.07;100.00
27429;BME280;14881;48.092;11.574;2023-05-10T06:59:55;95056.75;;;13.17;100.00
27429;BME280;14881;48.092;11.574;2023-05-10T07:02:22;95052.88;;;13.09;100.00
27429;BME280;14881;48.092;11.574;2023-05-10T07:04:48;95050.44;;;13.08;100.00
27429;BME280;14881;48.092;11.574;2023-05-10T07:07:15;95051.38;;;12.95;100.00
27429;BME280;14881;48.092;11.574;2023-05-10T07:09:42;95048.34;;;12.96;100.00
27429;BME280;14881;48.092;11.574;2023-05-10T07:12:09;95044.00;;;12.95;100.00
27429;BME280;14881;48.092;11.574;2023-05-10T07:14:38;95055.28;;;13.11;100.00
27429;BME280;14881;48.092;11.574;2023-05-10T07:17:05;95052.13;;;13.26;100.00
27429;BME280;14881;48.092;11.574;2023-05-10T07:19:32;95051.66;;;13.24;100.00
27429;BME280;14881;48.092;11.574;2023-05-10T07:21:58;95059.38;;;13.39;100.00
27429;BME280;14881;48.092;11.574;2023-05-10T07:24:24;95055.56;;;13.57;100.00
27429;BME280;14881;48.092;11.574;2023-05-10T07:26:51;95049.16;;;13.62;100.00
27429;BME280;14881;48.092;11.574;2023-05-10T07:29:18;95045.44;;;13.49;100.00
27429;BME280;14881;48.092;11.574;2023-05-10T07:31:44;95052.34;;;13.47;100.00
27429;BME280;14881;48.092;11.574;2023-05-10T07:34:11;95051.84;;;13.53;100.00
27429;BME280;14881;48.092;11.574;2023-05-10T07:36:37;95048.81;;;13.64;100.00
27429;BME280;14881;48.092;11.574;2023-05-10T07:39:03;95045.09;;;13.42;100.00
27429;BME280;14881;48.092;11.574;2023-05-10T07:41:30;95051.53;;;13.55;100.00
27429;BME280;14881;48.092;11.574;2023-05-10T07:43:56;95042.09;;;13.96;100.00
27429;BME280;14881;48.092;11.574;2023-05-10T07:46:24;95048.84;;;13.98;100.00
27429;BME280;14881;48.092;11.574;2023-05-10T07:48:50;95049.13;;;14.14;100.00
27429;BME280;14881;48.092;11.574;2023-05-10T07:51:16;95042.38;;;13.85;100.00
27429;BME280;14881;48.092;11.574;2023-05-10T07:53:43;95060.38;;;14.04;100.00
27429;BME280;14881;48.092;11.574;2023-05-10T07:56:23;95046.38;;;14.22;100.00
27429;BME280;14881;48.092;11.574;2023-05-10T07:58:51;95054.41;;;14.27;100.00
27429;BME280;14881;48.092;11.574;2023-05-10T08:01:17;95047.22;;;13.97;100.00
27429;BME280;14881;48.092;11.574;2023-05-10T08:03:44;95044.16;;;13.99;100.00
27429;BME280;14881;48.092;11.574;2023-05-10T08:06:11;95042.88;;;13.96;100.00
27429;BME280;14881;48.092;11.574;2023-05-10T08:08:37;95041.59;;;14.02;100.00
27429;BME280;14881;48.092;11.574;2023-05-10T08:11:04;95048.00;;;14.23;100.00
27429;BME280;14881;48.092;11.574;2023-05-10T08:13:30;95050.13;;;14.01;100.00
27429;BME280;14881;48.092;11.574;2023-05-10T08:15:57;95045.47;;;14.01;100.00
27429;BME280;14881;48.092;11.574;2023-05-10T08:18:23;95045.28;;;14.15;100.00
27429;BME280;14881;48.092;11.574;2023-05-10T08:20:51;95047.03;;;14.11;100.00
27429;BME280;14881;48.092;11.574;2023-05-10T08:23:17;95046.88;;;14.16;100.00
27429;BME280;14881;48.092;11.574;2023-05-10T08:25:43;95036.72;;;14.51;100.00
27429;BME280;14881;48.092;11.574;2023-05-10T08:28:10;95044.63;;;14.26;100.00
27429;BME280;14881;48.092;11.574;2023-05-10T08:30:37;95046.28;;;13.84;100.00
27429;BME280;14881;48.092;11.574;2023-05-10T08:33:03;95052.53;;;13.76;100.00
27429;BME280;14881;48.092;11.574;2023-05-10T08:35:30;95061.69;;;13.80;100.00
27429;BME280;14881;48.092;11.574;2023-05-10T08:37:57;95057.97;;;13.59;100.00
27429;BME280;14881;48.092;11.574;2023-05-10T08:40:24;95060.28;;;13.17;100.00
27429;BME280;14881;48.092;11.574;2023-05-10T08:42:56;95067.56;;;12.91;100.00
27429;BME280;14881;48.092;11.574;2023-05-10T08:45:25;95071.25;;;12.95;100.00
27429;BME280;14881;48.092;11.574;2023-05-10T08:47:53;95068.81;;;12.85;100.00
27429;BME280;14881;48.092;11.574;2023-05-10T08:50:20;95067.38;;;12.87;100.00
27429;BME280;14881;48.092;11.574;2023-05-10T08:52:48;95070.94;;;12.97;100.00
27429;BME280;14881;48.092;11.574;2023-05-10T08:55:18;95069.84;;;12.98;100.00
27429;BME280;14881;48.092;11.574;2023-05-10T08:57:45;95079.72;;;12.85;100.00
27429;BME280;14881;48.092;11.574;2023-05-10T09:00:12;95068.97;;;12.88;100.00
27429;BME280;14881;48.092;11.574;2023-05-10T09:02:40;95068.16;;;12.79;100.00
27429;BME280;14881;48.092;11.574;2023-05-10T09:05:08;95073.91;;;12.78;100.00
27429;BME280;14881;48.092;11.574;2023-05-10T09:07:36;95069.28;;;12.78;100.00
27429;BME280;14881;48.092;11.574;2023-05-10T09:10:04;95075.03;;;13.16;100.00
27429;BME280;14881;48.092;11.574;2023-05-10T09:12:31;95069.66;;;13.51;100.00
27429;BME280;14881;48.092;11.574;2023-05-10T09:14:59;95069.38;;;13.78;100.00
27429;BME280;14881;48.092;11.574;2023-05-10T09:17:27;95058.31;;;13.92;100.00
27429;BME280;14881;48.092;11.574;2023-05-10T09:19:57;95053.97;;;13.65;100.00
27429;BME280;14881;48.092;11.574;2023-05-10T09:22:24;95059.44;;;13.65;100.00
27429;BME280;14881;48.092;11.574;2023-05-10T09:25:03;95072.38;;;13.51;100.00
27429;BME280;14881;48.092;11.574;2023-05-10T09:27:30;95079.28;;;13.40;100.00
27429;BME280;14881;48.092;11.574;2023-05-10T09:29:57;95075.13;;;13.51;100.00
27429;BME280;14881;48.092;11.574;2023-05-10T09:32:35;95075.47;;;13.58;100.00
27429;BME280;14881;48.092;11.574;2023-05-10T09:35:09;95071.63;;;13.59;100.00
27429;BME280;14881;48.092;11.574;2023-05-10T09:37:35;95059.88;;;13.58;100.00
27429;BME280;14881;48.092;11.574;2023-05-10T09:40:05;95059.56;;;14.03;100.00
27429;BME280;14881;48.092;11.574;2023-05-10T09:42:33;95045.25;;;14.41;100.00
27429;BME280;14881;48.092;11.574;2023-05-10T09:45:02;95037.75;;;14.84;100.00
27429;BME280;14881;48.092;11.574;2023-05-10T09:47:31;95040.81;;;15.42;100.00
27429;BME280;14881;48.092;11.574;2023-05-10T09:49:57;95028.31;;;15.82;100.00
27429;BME280;14881;48.092;11.574;2023-05-10T09:52:29;95032.19;;;15.81;100.00
27429;BME280;14881;48.092;11.574;2023-05-10T09:54:55;95033.69;;;15.58;100.00
27429;BME280;14881;48.092;11.574;2023-05-10T09:57:23;95029.06;;;15.41;100.00
27429;BME280;14881;48.092;11.574;2023-05-10T09:59:50;95027.91;;;15.42;100.00
27429;BME280;14881;48.092;11.574;2023-05-10T10:02:18;95018.56;;;15.22;100.00
27429;BME280;14881;48.092;11.574;2023-05-10T10:04:44;95019.38;;;15.23;100.00
27429;BME280;14881;48.092;11.574;2023-05-10T10:07:11;95020.44;;;15.60;100.00
27429;BME280;14881;48.092;11.574;2023-05-10T10:09:38;95022.44;;;15.72;100.00
27429;BME280;14881;48.092;11.574;2023-05-10T10:12:05;95021.09;;;15.78;100.00
27429;BME280;14881;48.092;11.574;2023-05-10T10:14:32;95013.16;;;15.64;100.00
27429;BME280;14881;48.092;11.574;2023-05-10T10:17:00;95016.97;;;15.92;100.00
27429;BME280;14881;48.092;11.574;2023-05-10T10:19:34;95014.16;;;16.01;100.00
27429;BME280;14881;48.092;11.574;2023-05-10T10:22:01;95006.22;;;15.87;100.00
27429;BME280;14881;48.092;11.574;2023-05-10T10:24:27;95007.41;;;15.98;100.00
27429;BME280;14881;48.092;11.574;2023-05-10T10:26:57;95011.50;;;16.25;100.00
27429;BME280;14881;48.092;11.574;2023-05-10T10:29:35;95011.28;;;16.63;100.00
27429;BME280;14881;48.092;11.574;2023-05-10T10:32:09;95005.84;;;17.12;100.00
27429;BME280;14881;48.092;11.574;2023-05-10T10:34:39;94999.97;;;17.74;100.00
27429;BME280;14881;48.092;11.574;2023-05-10T10:37:06;95001.56;;;18.16;100.00
27429;BME280;14881;48.092;11.574;2023-05-10T10:39:32;94996.09;;;18.75;100.00
27429;BME280;14881;48.092;11.574;2023-05-10T10:42:02;94993.19;;;18.68;100.00
27429;BME280;14881;48.092;11.574;2023-05-10T10:44:38;94979.16;;;19.04;100.00
27429;BME280;14881;48.092;11.574;2023-05-10T10:47:21;94981.81;;;19.01;100.00
27429;BME280;14881;48.092;11.574;2023-05-10T10:49:52;94983.13;;;18.75;100.00
27429;BME280;14881;48.092;11.574;2023-05-10T10:52:31;94989.63;;;18.39;100.00
27429;BME280;14881;48.092;11.574;2023-05-10T10:55:01;94983.44;;;18.15;100.00
27429;BME280;14881;48.092;11.574;2023-05-10T10:57:31;94993.56;;;17.58;100.00
27429;BME280;14881;48.092;11.574;2023-05-10T11:00:24;94990.06;;;17.09;100.00
27429;BME280;14881;48.092;11.574;2023-05-10T11:02:52;94994.56;;;16.56;100.00
27429;BME280;14881;48.092;11.574;2023-05-10T11:05:35;94996.75;;;15.97;100.00
27429;BME280;14881;48.092;11.574;2023-05-10T11:08:08;95015.41;;;15.62;100.00
27429;BME280;14881;48.092;11.574;2023-05-10T11:10:34;95044.41;;;14.66;100.00
27429;BME280;14881;48.092;11.574;2023-05-10T11:13:02;95067.94;;;13.98;100.00
27429;BME280;14881;48.092;11.574;2023-05-10T11:15:30;95073.53;;;13.58;100.00
27429;BME280;14881;48.092;11.574;2023-05-10T11:17:56;95086.19;;;13.37;100.00
27429;BME280;14881;48.092;11.574;2023-05-10T11:20:23;95083.88;;;13.22;100.00
27429;BME280;14881;48.092;11.574;2023-05-10T11:23:11;95085.41;;;13.06;100.00
27429;BME280;14881;48.092;11.574;2023-05-10T11:25:41;95086.31;;;12.93;100.00
27429;BME280;14881;48.092;11.574;2023-05-10T11:28:09;95089.69;;;12.89;100.00
27429;BME280;14881;48.092;11.574;2023-05-10T11:30:35;95096.13;;;12.94;100.00
27429;BME280;14881;48.092;11.574;2023-05-10T11:33:02;95097.06;;;12.58;100.00
27429;BME280;14881;48.092;11.574;2023-05-10T11:35:28;95103.53;;;12.40;100.00
27429;BME280;14881;48.092;11.574;2023-05-10T11:37:55;95110.34;;;12.29;100.00
27429;BME280;14881;48.092;11.574;2023-05-10T11:40:22;95121.41;;;12.10;100.00
27429;BME280;14881;48.092;11.574;2023-05-10T11:42:50;95110.56;;;11.96;100.00
27429;BME280;14881;48.092;11.574;2023-05-10T11:45:23;95110.09;;;11.94;100.00
27429;BME280;14881;48.092;11.574;2023-05-10T11:47:50;95124.31;;;11.91;100.00
27429;BME280;14881;48.092;11.574;2023-05-10T11:50:17;95123.59;;;11.85;100.00
27429;BME280;14881;48.092;11.574;2023-05-10T11:52:44;95121.78;;;11.81;100.00
27429;BME280;14881;48.092;11.574;2023-05-10T11:55:12;95131.72;;;11.77;100.00
27429;BME280;14881;48.092;11.574;2023-05-10T11:57:39;95136.34;;;11.76;100.00
27429;BME280;14881;48.092;11.574;2023-05-10T12:00:08;95137.41;;;11.75;100.00
27429;BME280;14881;48.092;11.574;2023-05-10T12:02:34;95146.41;;;11.76;100.00
27429;BME280;14881;48.092;11.574;2023-05-10T12:05:02;95146.81;;;11.56;100.00
27429;BME280;14881;48.092;11.574;2023-05-10T12:07:31;95147.72;;;11.51;100.00
27429;BME280;14881;48.092;11.574;2023-05-10T12:10:05;95149.25;;;11.57;100.00
27429;BME280;14881;48.092;11.574;2023-05-10T12:12:37;95151.84;;;11.48;100.00
27429;BME280;14881;48.092;11.574;2023-05-10T12:15:06;95152.75;;;11.44;100.00
27429;BME280;14881;48.092;11.574;2023-05-10T12:17:37;95152.66;;;11.49;100.00
27429;BME280;14881;48.092;11.574;2023-05-10T12:20:14;95159.91;;;11.67;100.00
27429;BME280;14881;48.092;11.574;2023-05-10T12:22:44;95159.81;;;11.72;100.00
27429;BME280;14881;48.092;11.574;2023-05-10T12:25:10;95175.53;;;11.89;100.00
27429;BME280;14881;48.092;11.574;2023-05-10T12:27:36;95169.34;;;11.97;100.00
27429;BME280;14881;48.092;11.574;2023-05-10T12:30:04;95177.09;;;12.04;100.00
27429;BME280;14881;48.092;11.574;2023-05-10T12:32:40;95176.84;;;12.14;100.00
27429;BME280;14881;48.092;11.574;2023-05-10T12:35:07;95179.56;;;12.14;100.00
27429;BME280;14881;48.092;11.574;2023-05-10T12:37:34;95175.25;;;12.13;100.00
27429;BME280;14881;48.092;11.574;2023-05-10T12:40:09;95180.31;;;12.06;100.00
27429;BME280;14881;48.092;11.574;2023-05-10T12:42:37;95182.25;;;12.05;100.00
27429;BME280;14881;48.092;11.574;2023-05-10T12:45:04;95175.69;;;12.06;100.00
27429;BME280;14881;48.092;11.574;2023-05-10T12:47:31;95175.38;;;12.08;100.00